Terminal Aerodrome Forecast
Issued by NWS Green Bay, WI

Home | Current Version | Previous Version | Graphics & Text | Print | Product List | Glossary On
Versions: 1 2 3 4 5 6 7 8 9 10 11 12 13 14 15 16 17 18 19 20 21 22 23 24 25 26 27 28 29 30 31 32 33 34
000
FTUS43 KGRB 291400 AAA
TAFGRB
TAF AMD
KGRB 291422Z 2914/3012 19018G27KT P6SM SCT090 OVC250
     FM291500 20022G32KT 5SM -RAPL SCT020 OVC045
      TEMPO 2915/2917 3SM -SN SCT007 OVC035
     FM291700 20020G29KT P6SM -SHRA BKN030
     FM292100 23014G23KT P6SM BKN040
     FM300100 28012KT P6SM SCT050=

USA.gov is the U.S. government's official web portal to all federal, state and local government web resources and services.